createdAt,value
2023-11-26T00:01:43.260Z,2.43
2023-11-26T00:04:31.557Z,2.60
2023-11-26T00:07:21.128Z,3.10
2023-11-26T00:10:10.888Z,3.33
2023-11-26T00:12:58.989Z,3.10
2023-11-26T00:15:47.149Z,3.33
2023-11-26T00:18:35.274Z,3.00
2023-11-26T00:21:24.751Z,3.17
2023-11-26T00:24:14.181Z,3.00
2023-11-26T00:27:02.276Z,2.83
2023-11-26T00:29:50.676Z,3.53
2023-11-26T00:32:38.805Z,3.17
2023-11-26T00:35:26.956Z,3.30
2023-11-26T00:38:15.141Z,3.17
2023-11-26T00:41:04.729Z,3.23
2023-11-26T00:43:53.224Z,3.50
2023-11-26T00:46:41.306Z,3.20
2023-11-26T00:49:29.494Z,2.90
2023-11-26T00:52:17.626Z,3.10
2023-11-26T00:55:07.566Z,3.20
2023-11-26T00:57:57.230Z,2.97
2023-11-26T01:00:46.624Z,3.20
2023-11-26T01:03:34.787Z,3.23
2023-11-26T01:06:22.924Z,3.47
2023-11-26T01:09:11.557Z,3.33
2023-11-26T01:11:59.678Z,3.70
2023-11-26T01:14:49.131Z,3.30
2023-11-26T01:17:37.458Z,3.23
2023-11-26T01:20:25.817Z,3.40
2023-11-26T01:23:14.028Z,3.73
2023-11-26T01:26:02.258Z,3.53
2023-11-26T01:28:50.479Z,3.40
2023-11-26T01:31:39.938Z,3.30
2023-11-26T01:34:28.176Z,3.37
2023-11-26T01:37:16.273Z,2.90
2023-11-26T01:40:06.322Z,2.97
2023-11-26T01:42:54.436Z,3.83
2023-11-26T01:45:42.548Z,2.90
2023-11-26T01:48:32.475Z,3.60
2023-11-26T01:51:21.833Z,3.00
2023-11-26T01:54:10.464Z,3.03
2023-11-26T01:56:59.493Z,3.00
2023-11-26T01:59:48.115Z,2.60
2023-11-26T02:02:36.359Z,2.70
2023-11-26T02:05:26.069Z,2.87
2023-11-26T02:08:14.279Z,3.20
2023-11-26T02:11:02.468Z,3.40
2023-11-26T02:13:55.314Z,3.07
2023-11-26T02:16:47.748Z,2.70
2023-11-26T02:19:38.303Z,2.90
2023-11-26T02:22:28.607Z,3.23
2023-11-26T02:25:18.399Z,3.03
2023-11-26T02:28:07.795Z,2.77
2023-11-26T02:30:56.304Z,3.10
2023-11-26T02:33:54.697Z,3.00
2023-11-26T02:36:44.294Z,3.50
2023-11-26T02:39:32.394Z,3.20
2023-11-26T02:42:23.395Z,3.40
2023-11-26T02:45:11.944Z,3.60
2023-11-26T02:48:00.042Z,4.00
2023-11-26T02:50:49.163Z,3.43
2023-11-26T02:53:37.337Z,3.70
2023-11-26T02:56:26.775Z,5.10
2023-11-26T02:59:16.646Z,3.93
2023-11-26T03:02:05.155Z,3.70
2023-11-26T03:04:54.567Z,3.97
2023-11-26T03:07:42.716Z,3.60
2023-11-26T03:10:48.627Z,4.00
2023-11-26T03:13:37.386Z,3.50
2023-11-26T03:16:27.496Z,4.20
2023-11-26T03:19:16.090Z,3.97
2023-11-26T03:22:08.805Z,4.20
2023-11-26T03:24:56.903Z,4.17
2023-11-26T03:27:44.985Z,4.37
2023-11-26T03:30:33.439Z,4.23
2023-11-26T03:33:23.021Z,3.87
2023-11-26T03:36:11.487Z,4.40
2023-11-26T03:39:00.227Z,4.13
2023-11-26T03:41:50.278Z,4.07
2023-11-26T03:44:38.440Z,4.03
2023-11-26T03:47:26.637Z,4.13
2023-11-26T03:50:16.971Z,4.40
2023-11-26T03:53:06.373Z,4.53
2023-11-26T03:55:55.065Z,4.20
2023-11-26T03:58:43.533Z,4.77
2023-11-26T04:01:31.663Z,4.80
2023-11-26T04:04:19.808Z,4.70
2023-11-26T04:07:09.647Z,4.47
2023-11-26T04:09:58.552Z,4.60
2023-11-26T04:12:46.627Z,4.30
2023-11-26T04:15:34.735Z,4.63
2023-11-26T04:18:23.023Z,4.17
2023-11-26T04:21:11.158Z,3.77
2023-11-26T04:24:00.723Z,4.47
2023-11-26T04:26:48.927Z,4.43
2023-11-26T04:29:37.125Z,4.23
2023-11-26T04:32:25.372Z,4.63
2023-11-26T04:35:14.090Z,3.80
2023-11-26T04:38:03.112Z,3.67
2023-11-26T04:40:53.406Z,3.83
2023-11-26T04:43:41.609Z,3.97
2023-11-26T04:46:29.891Z,4.10
2023-11-26T04:49:18.574Z,3.97
2023-11-26T04:52:07.117Z,4.17
2023-11-26T04:54:55.232Z,3.80
2023-11-26T04:57:44.766Z,3.77
2023-11-26T05:00:32.919Z,4.00
2023-11-26T05:03:23.532Z,4.23
2023-11-26T05:06:14.491Z,3.90
2023-11-26T05:09:02.604Z,4.20
2023-11-26T05:11:51.502Z,3.87
2023-11-26T05:14:41.047Z,3.67
2023-11-26T05:17:29.475Z,3.73
2023-11-26T05:20:19.755Z,4.37
2023-11-26T05:23:08.277Z,4.53
2023-11-26T05:25:56.514Z,4.30
2023-11-26T05:28:44.872Z,4.80
2023-11-26T05:31:35.195Z,3.90
2023-11-26T05:34:23.358Z,3.93
2023-11-26T05:37:12.845Z,4.10
2023-11-26T05:40:01.000Z,4.37
2023-11-26T05:42:50.182Z,3.97
2023-11-26T05:45:38.377Z,3.90
2023-11-26T05:48:27.886Z,4.23
2023-11-26T05:51:22.658Z,3.50
2023-11-26T05:54:10.746Z,3.70
2023-11-26T05:56:58.933Z,3.30
2023-11-26T05:59:47.248Z,3.33
2023-11-26T06:02:35.386Z,3.50
2023-11-26T06:05:24.937Z,3.53
2023-11-26T06:08:13.013Z,4.00
2023-11-26T06:11:01.124Z,3.50
2023-11-26T06:13:49.190Z,3.20
2023-11-26T06:16:37.403Z,3.40
2023-11-26T06:19:25.449Z,3.20
2023-11-26T06:22:14.952Z,3.20
2023-11-26T06:25:03.095Z,2.97
2023-11-26T06:27:51.542Z,3.07
2023-11-26T06:30:39.671Z,2.73
2023-11-26T06:33:28.068Z,3.10
2023-11-26T06:36:20.474Z,2.70
2023-11-26T06:39:10.741Z,2.80
2023-11-26T06:41:58.991Z,2.67
2023-11-26T06:44:47.341Z,2.60
2023-11-26T06:47:35.894Z,2.37
2023-11-26T06:50:24.057Z,2.37
2023-11-26T06:53:12.506Z,3.90
2023-11-26T06:56:01.926Z,4.70
2023-11-26T06:58:50.117Z,4.20
2023-11-26T07:01:38.649Z,2.73
2023-11-26T07:04:26.860Z,2.60
2023-11-26T07:07:15.035Z,2.67
2023-11-26T07:10:04.548Z,2.50
2023-11-26T07:12:56.694Z,2.80
2023-11-26T07:15:45.009Z,3.27
2023-11-26T07:18:33.352Z,2.80
2023-11-26T07:21:21.935Z,2.87
2023-11-26T07:24:10.543Z,2.90
2023-11-26T07:26:58.620Z,3.00
2023-11-26T07:29:48.016Z,3.03
2023-11-26T07:32:36.418Z,3.10
2023-11-26T07:35:25.055Z,2.97
2023-11-26T07:38:13.149Z,2.83
2023-11-26T07:41:01.185Z,3.30
2023-11-26T07:43:50.740Z,3.20
2023-11-26T07:46:40.373Z,3.40
2023-11-26T07:49:30.307Z,3.93
2023-11-26T07:52:18.417Z,3.30
2023-11-26T07:55:07.496Z,3.37
2023-11-26T07:57:56.011Z,3.20
2023-11-26T08:00:44.275Z,3.93
2023-11-26T08:03:34.627Z,3.97
2023-11-26T08:06:22.881Z,4.03
2023-11-26T08:09:12.244Z,4.00
2023-11-26T08:12:02.108Z,4.37
2023-11-26T08:14:51.470Z,4.10
2023-11-26T08:17:40.272Z,4.33
2023-11-26T08:20:29.825Z,4.67
2023-11-26T08:23:18.367Z,4.83
2023-11-26T08:26:13.337Z,4.83
2023-11-26T08:29:02.691Z,4.47
2023-11-26T08:31:51.081Z,4.73
2023-11-26T08:34:42.727Z,5.80
2023-11-26T08:37:32.543Z,7.07
2023-11-26T08:40:20.939Z,8.17
2023-11-26T08:43:12.137Z,5.40
2023-11-26T08:46:03.985Z,4.67
2023-11-26T08:48:53.589Z,5.33
2023-11-26T08:51:42.206Z,4.90
2023-11-26T08:54:31.746Z,5.03
2023-11-26T08:57:22.750Z,5.13
2023-11-26T09:00:12.763Z,5.17
2023-11-26T09:03:01.505Z,4.77
2023-11-26T09:05:50.215Z,4.73
2023-11-26T09:08:38.472Z,4.43
2023-11-26T09:11:28.920Z,4.60
2023-11-26T09:14:17.021Z,4.83
2023-11-26T09:17:05.528Z,4.53
2023-11-26T09:19:53.904Z,4.80
2023-11-26T09:22:42.503Z,4.00
2023-11-26T09:25:30.651Z,4.17
2023-11-26T09:28:20.132Z,4.10
2023-11-26T09:31:10.077Z,4.27
2023-11-26T09:33:58.479Z,4.50
2023-11-26T09:36:47.016Z,4.63
2023-11-26T09:39:35.987Z,4.73
2023-11-26T09:42:24.992Z,4.33
2023-11-26T09:45:14.459Z,5.80
2023-11-26T09:48:02.652Z,5.30
2023-11-26T09:50:55.223Z,4.80
2023-11-26T09:53:43.695Z,4.57
2023-11-26T09:56:32.660Z,4.80
2023-11-26T09:59:28.379Z,4.87
2023-11-26T10:02:18.024Z,5.20
2023-11-26T10:05:08.200Z,5.30
2023-11-26T10:07:56.398Z,4.40
2023-11-26T10:10:51.544Z,5.07
2023-11-26T10:13:40.737Z,5.13
2023-11-26T10:16:30.486Z,5.03
2023-11-26T10:19:25.825Z,4.93
2023-11-26T10:22:14.036Z,5.40
2023-11-26T10:25:13.578Z,5.20
2023-11-26T10:28:03.871Z,4.87
2023-11-26T10:30:52.245Z,5.10
2023-11-26T10:33:40.905Z,5.13
2023-11-26T10:36:34.482Z,5.40
2023-11-26T10:39:22.751Z,7.27
2023-11-26T10:42:12.643Z,4.77
2023-11-26T10:45:03.269Z,5.00
2023-11-26T10:47:53.276Z,4.60
2023-11-26T10:50:44.147Z,4.50
2023-11-26T10:53:40.763Z,5.03
2023-11-26T10:56:36.949Z,4.87
2023-11-26T10:59:26.652Z,4.40
2023-11-26T11:02:17.066Z,5.00
2023-11-26T11:05:08.148Z,4.90
2023-11-26T11:07:57.290Z,4.70
2023-11-26T11:10:56.819Z,3.93
2023-11-26T11:13:45.715Z,3.80
2023-11-26T11:16:34.217Z,4.40
2023-11-26T11:19:50.743Z,4.07
2023-11-26T11:22:43.137Z,4.47
2023-11-26T11:25:31.486Z,4.13
2023-11-26T11:28:20.984Z,3.63
2023-11-26T11:31:10.795Z,3.90
2023-11-26T11:34:21.243Z,3.90
2023-11-26T11:37:10.242Z,4.27
2023-11-26T11:39:59.364Z,3.90
2023-11-26T11:43:15.301Z,3.90
2023-11-26T11:46:48.549Z,3.67
2023-11-26T11:50:10.254Z,3.80
2023-11-26T11:52:58.347Z,3.70
2023-11-26T11:56:01.392Z,3.63
2023-11-26T11:58:49.477Z,3.10
2023-11-26T12:01:40.666Z,2.60
2023-11-26T12:04:42.777Z,2.83
2023-11-26T12:07:33.269Z,3.00
2023-11-26T12:10:25.461Z,3.10
2023-11-26T12:13:13.927Z,3.10
2023-11-26T12:16:02.124Z,2.53
2023-11-26T12:18:57.465Z,2.33
2023-11-26T12:21:45.747Z,2.50
2023-11-26T12:24:34.479Z,2.80
2023-11-26T12:27:24.667Z,2.53
2023-11-26T12:30:14.657Z,2.90
2023-11-26T12:33:04.014Z,2.30
2023-11-26T12:35:53.891Z,2.30
2023-11-26T12:38:43.983Z,2.53
2023-11-26T12:41:32.362Z,2.87
2023-11-26T12:44:21.915Z,2.53
2023-11-26T12:47:14.228Z,1.70
2023-11-26T12:50:03.900Z,1.90
2023-11-26T12:52:55.036Z,2.13
2023-11-26T12:55:46.989Z,1.63
2023-11-26T12:58:35.780Z,1.90
2023-11-26T13:01:27.725Z,1.80
2023-11-26T13:04:16.047Z,1.50
2023-11-26T13:07:05.519Z,1.77
2023-11-26T13:09:55.660Z,1.97
2023-11-26T13:12:47.101Z,2.03
2023-11-26T13:15:35.211Z,2.30
2023-11-26T13:18:23.585Z,2.50
2023-11-26T13:21:12.537Z,2.13
2023-11-26T13:24:00.654Z,2.40
2023-11-26T13:26:51.248Z,2.00
2023-11-26T13:29:39.274Z,2.47
2023-11-26T13:32:28.191Z,2.50
2023-11-26T13:35:16.857Z,2.40
2023-11-26T13:38:05.234Z,2.50
2023-11-26T13:40:54.604Z,3.07
2023-11-26T13:43:44.406Z,2.43
2023-11-26T13:46:32.529Z,2.50
2023-11-26T13:49:20.632Z,2.40
2023-11-26T13:52:10.324Z,2.90
2023-11-26T13:54:59.222Z,2.60
2023-11-26T13:57:47.354Z,2.63
2023-11-26T14:00:37.056Z,2.70
2023-11-26T14:03:25.516Z,2.70
2023-11-26T14:06:14.320Z,2.57
2023-11-26T14:09:02.517Z,2.60
2023-11-26T14:11:53.127Z,2.70
2023-11-26T14:14:41.729Z,2.80
2023-11-26T14:17:31.334Z,2.93
2023-11-26T14:20:22.201Z,2.80
2023-11-26T14:23:11.104Z,2.40
2023-11-26T14:25:59.236Z,3.20
2023-11-26T14:28:47.345Z,2.97
2023-11-26T14:31:36.391Z,2.37
2023-11-26T14:34:25.878Z,2.50
2023-11-26T14:37:14.371Z,2.63
2023-11-26T14:40:10.970Z,2.57
2023-11-26T14:43:00.878Z,2.20
2023-11-26T14:45:49.343Z,2.10
2023-11-26T14:48:37.718Z,2.47
2023-11-26T14:51:27.627Z,2.20
2023-11-26T14:54:15.908Z,2.50
2023-11-26T14:57:04.557Z,2.30
2023-11-26T14:59:53.438Z,2.43
2023-11-26T15:02:42.217Z,2.67
2023-11-26T15:05:30.684Z,2.30
2023-11-26T15:08:20.137Z,2.03
2023-11-26T15:11:11.474Z,2.10
2023-11-26T15:14:00.420Z,2.50
2023-11-26T15:16:48.983Z,2.80
2023-11-26T15:19:38.609Z,2.50
2023-11-26T15:22:26.879Z,2.60
2023-11-26T15:25:16.636Z,2.33
2023-11-26T15:28:04.794Z,2.70
2023-11-26T15:30:52.888Z,2.93
2023-11-26T15:33:41.063Z,2.13
2023-11-26T15:36:29.401Z,2.23
2023-11-26T15:39:23.257Z,2.40
2023-11-26T15:42:12.928Z,2.00
2023-11-26T15:45:01.245Z,2.20
2023-11-26T15:47:50.747Z,2.10
2023-11-26T15:50:39.752Z,2.27
2023-11-26T15:53:27.921Z,2.10
2023-11-26T15:56:20.153Z,2.20
2023-11-26T15:59:09.919Z,2.27
2023-11-26T16:02:01.775Z,2.37
2023-11-26T16:04:50.265Z,2.27
2023-11-26T16:07:39.133Z,2.00
2023-11-26T16:10:27.409Z,2.13
2023-11-26T16:13:15.743Z,2.10
2023-11-26T16:16:06.456Z,2.20
2023-11-26T16:18:55.290Z,2.30
2023-11-26T16:21:43.533Z,2.23
2023-11-26T16:24:37.709Z,2.70
2023-11-26T16:27:26.559Z,2.70
2023-11-26T16:30:17.694Z,2.30
2023-11-26T16:33:07.162Z,2.93
2023-11-26T16:35:55.794Z,2.10
2023-11-26T16:38:44.209Z,2.60
2023-11-26T16:41:32.304Z,2.40
2023-11-26T16:44:21.295Z,3.10
2023-11-26T16:47:09.427Z,2.87
2023-11-26T16:49:59.135Z,2.70
2023-11-26T16:52:49.183Z,2.67
2023-11-26T16:55:37.628Z,3.03
2023-11-26T16:58:26.185Z,3.13
2023-11-26T17:01:14.650Z,2.90
2023-11-26T17:04:03.360Z,2.83
2023-11-26T17:06:52.969Z,2.77
2023-11-26T17:09:41.114Z,2.77
2023-11-26T17:12:29.973Z,2.50
2023-11-26T17:15:18.414Z,2.33
2023-11-26T17:18:06.744Z,2.73
2023-11-26T17:20:54.879Z,3.00
2023-11-26T17:23:48.895Z,2.50
2023-11-26T17:26:39.973Z,2.40
2023-11-26T17:29:28.059Z,2.70
2023-11-26T17:32:17.264Z,2.53
2023-11-26T17:35:05.721Z,2.07
2023-11-26T17:37:53.863Z,2.57
2023-11-26T17:40:43.414Z,2.60
2023-11-26T17:43:31.517Z,2.57
2023-11-26T17:46:19.909Z,4.30
2023-11-26T17:49:08.487Z,3.03
2023-11-26T17:51:56.661Z,2.83
2023-11-26T17:54:44.806Z,2.30
2023-11-26T17:57:34.425Z,2.47
2023-11-26T18:00:22.726Z,2.80
2023-11-26T18:03:11.855Z,2.77
2023-11-26T18:06:00.321Z,3.03
2023-11-26T18:09:06.489Z,2.70
2023-11-26T18:11:59.155Z,3.00
2023-11-26T18:14:49.431Z,2.70
2023-11-26T18:17:38.076Z,3.20
2023-11-26T18:20:26.311Z,2.57
2023-11-26T18:23:14.564Z,2.93
2023-11-26T18:26:02.701Z,3.13
2023-11-26T18:28:50.780Z,2.90
2023-11-26T18:31:43.845Z,3.10
2023-11-26T18:34:31.950Z,3.23
2023-11-26T18:37:20.787Z,3.97
2023-11-26T18:40:11.053Z,3.40
2023-11-26T18:43:00.120Z,4.90
2023-11-26T18:45:50.002Z,3.73
2023-11-26T18:48:39.749Z,3.40
2023-11-26T18:51:27.975Z,3.33
2023-11-26T18:54:16.452Z,3.30
2023-11-26T18:57:04.945Z,3.30
2023-11-26T18:59:53.483Z,3.20
2023-11-26T19:02:42.809Z,3.30
2023-11-26T19:05:32.430Z,3.23
2023-11-26T19:08:20.562Z,3.23
2023-11-26T19:11:10.189Z,3.33
2023-11-26T19:13:59.798Z,3.43
2023-11-26T19:16:48.622Z,2.93
2023-11-26T19:19:36.895Z,3.40
2023-11-26T19:22:26.377Z,3.80
2023-11-26T19:25:15.566Z,3.20
2023-11-26T19:28:04.591Z,3.50
2023-11-26T19:30:53.053Z,3.13
2023-11-26T19:33:41.185Z,3.00
2023-11-26T19:36:29.677Z,3.20
2023-11-26T19:39:19.261Z,3.47
2023-11-26T19:42:07.981Z,4.70
2023-11-26T19:44:56.160Z,6.10
2023-11-26T19:47:44.339Z,3.57
2023-11-26T19:50:34.536Z,3.50
2023-11-26T19:53:22.616Z,3.47
2023-11-26T19:56:15.151Z,3.33
2023-11-26T19:59:03.347Z,3.23
2023-11-26T20:01:53.107Z,3.30
2023-11-26T20:04:42.457Z,3.30
2023-11-26T20:07:30.927Z,3.00
2023-11-26T20:10:19.614Z,3.30
2023-11-26T20:13:09.145Z,2.50
2023-11-26T20:15:57.929Z,3.63
2023-11-26T20:18:46.761Z,7.13
2023-11-26T20:21:35.274Z,6.60
2023-11-26T20:24:27.880Z,4.10
2023-11-26T20:27:17.492Z,3.47
2023-11-26T20:30:09.188Z,2.63
2023-11-26T20:32:59.898Z,2.73
2023-11-26T20:35:48.185Z,2.33
2023-11-26T20:38:37.564Z,2.67
2023-11-26T20:41:26.565Z,2.40
2023-11-26T20:44:14.745Z,2.60
2023-11-26T20:47:08.544Z,2.87
2023-11-26T20:49:59.663Z,2.93
2023-11-26T20:52:47.813Z,3.20
2023-11-26T20:55:36.030Z,2.77
2023-11-26T20:58:26.596Z,2.70
2023-11-26T21:01:16.659Z,2.60
2023-11-26T21:04:08.158Z,2.37
2023-11-26T21:06:56.402Z,2.37
2023-11-26T21:09:44.702Z,2.03
2023-11-26T21:12:33.631Z,1.90
2023-11-26T21:15:21.855Z,1.97
2023-11-26T21:18:10.847Z,1.63
2023-11-26T21:21:01.217Z,1.87
2023-11-26T21:23:49.300Z,1.77
2023-11-26T21:26:38.062Z,1.83
2023-11-26T21:29:26.564Z,1.87
2023-11-26T21:32:16.962Z,1.40
2023-11-26T21:35:06.087Z,1.60
2023-11-26T21:37:55.947Z,1.50
2023-11-26T21:40:53.125Z,1.60
2023-11-26T21:43:45.553Z,1.43
2023-11-26T21:46:39.229Z,1.50
2023-11-26T21:49:31.426Z,1.23
2023-11-26T21:52:19.786Z,1.30
2023-11-26T21:55:10.452Z,1.47
2023-11-26T21:57:58.917Z,1.33
2023-11-26T22:00:47.127Z,1.37
2023-11-26T22:03:35.577Z,1.13
2023-11-26T22:06:23.880Z,0.93
2023-11-26T22:09:12.366Z,1.07
2023-11-26T22:12:02.938Z,0.87
2023-11-26T22:14:51.109Z,1.13
2023-11-26T22:17:39.175Z,2.47
2023-11-26T22:20:27.640Z,1.50
2023-11-26T22:23:26.706Z,0.87
2023-11-26T22:26:22.038Z,0.90
2023-11-26T22:29:11.896Z,1.00
2023-11-26T22:32:00.795Z,1.17
2023-11-26T22:34:49.003Z,1.20
2023-11-26T22:37:38.011Z,1.20
2023-11-26T22:40:26.103Z,1.47
2023-11-26T22:43:14.277Z,1.23
2023-11-26T22:46:05.203Z,1.33
2023-11-26T22:48:54.933Z,1.80
2023-11-26T22:51:43.059Z,1.83
2023-11-26T22:54:31.311Z,2.00
2023-11-26T22:57:19.468Z,2.00
2023-11-26T23:00:20.596Z,2.20
2023-11-26T23:03:10.455Z,2.10
2023-11-26T23:05:59.245Z,2.40
2023-11-26T23:08:47.410Z,2.80
2023-11-26T23:11:35.844Z,2.70
2023-11-26T23:14:23.958Z,2.63
2023-11-26T23:17:12.088Z,2.70
2023-11-26T23:20:01.633Z,2.70
2023-11-26T23:22:49.881Z,2.67
2023-11-26T23:25:38.422Z,2.40
2023-11-26T23:28:28.536Z,2.47
2023-11-26T23:31:17.200Z,2.70
2023-11-26T23:34:05.636Z,3.10
2023-11-26T23:36:55.121Z,3.03
2023-11-26T23:39:43.202Z,2.70
2023-11-26T23:42:31.322Z,3.13
2023-11-26T23:45:20.313Z,3.03
2023-11-26T23:48:08.666Z,3.40
2023-11-26T23:50:56.825Z,3.57
2023-11-26T23:53:46.302Z,3.50
2023-11-26T23:56:35.076Z,3.70
2023-11-26T23:59:23.277Z,3.67
